Time;durP1;ratioP1;P1;durP2;ratioP2;P2;SDS_P1;SDS_P2;PMS_P1;PMS_P2;Temp;Humidity;BMP_temperature;BMP_pressure;BME280_temperature;BME280_humidity;BME280_pressure;Samples;Min_cycle;Max_cycle;Signal;HPM_P1;HPM_P2
2021/07/06 00:01:35;;;;;;;27.20;25.50;;;;;;;;;;5034444;28;20452;-70
2021/07/06 00:04:02;;;;;;;26.10;24.63;;;;;;;;;;5034658;28;20828;-69
2021/07/06 00:06:29;;;;;;;26.40;25.03;;;;;;;;;;5034302;28;20444;-69
2021/07/06 00:08:56;;;;;;;26.40;25.10;;;;;;;;;;5032879;28;21021;-69
2021/07/06 00:11:23;;;;;;;26.63;25.10;;;;;;;;;;5034374;28;20451;-69
2021/07/06 00:13:52;;;;;;;25.73;24.43;;;;;;;;;;5034037;28;20794;-69
2021/07/06 00:16:19;;;;;;;26.07;24.77;;;;;;;;;;5033909;28;20962;-69
2021/07/06 00:18:46;;;;;;;26.60;25.20;;;;;;;;;;5033638;28;20575;-68
2021/07/06 00:21:13;;;;;;;26.10;24.70;;;;;;;;;;5033951;28;20449;-68
2021/07/06 00:23:40;;;;;;;27.40;25.67;;;;;;;;;;5034087;28;20452;-68
2021/07/06 00:26:07;;;;;;;27.57;26.10;;;;;;;;;;5033790;28;20453;-68
2021/07/06 00:28:35;;;;;;;27.47;25.97;;;;;;;;;;5040423;28;20476;-68
2021/07/06 00:31:04;;;;;;;27.20;25.80;;;;;;;;;;5053412;28;20928;-68
2021/07/06 00:33:31;;;;;;;29.73;27.63;;;;;;;;;;5052458;28;20486;-69
2021/07/06 00:35:59;;;;;;;28.33;26.77;;;;;;;;;;5053203;28;20530;-68
2021/07/06 00:38:26;;;;;;;28.37;26.87;;;;;;;;;;5053084;28;21043;-70
2021/07/06 00:40:54;;;;;;;30.10;28.23;;;;;;;;;;5053767;28;20444;-69
2021/07/06 00:43:21;;;;;;;29.57;27.80;;;;;;;;;;5053713;28;20538;-69
2021/07/06 00:45:48;;;;;;;29.17;27.57;;;;;;;;;;5053395;28;20454;-69
2021/07/06 00:48:17;;;;;;;28.93;27.37;;;;;;;;;;5053524;28;20494;-69
2021/07/06 00:50:44;;;;;;;28.97;27.47;;;;;;;;;;5047469;28;20457;-69
2021/07/06 00:53:11;;;;;;;29.70;28.20;;;;;;;;;;5033744;28;20827;-69
2021/07/06 00:55:38;;;;;;;29.30;27.77;;;;;;;;;;5033553;28;20447;-69
2021/07/06 00:58:06;;;;;;;28.90;27.20;;;;;;;;;;5032580;28;20479;-69
2021/07/06 01:00:33;;;;;;;29.57;27.70;;;;;;;;;;5033081;28;20875;-68
2021/07/06 01:03:00;;;;;;;28.77;27.27;;;;;;;;;;5033007;28;20444;-69
2021/07/06 01:05:28;;;;;;;29.20;27.60;;;;;;;;;;5033118;28;20449;-68
2021/07/06 01:07:56;;;;;;;28.57;27.17;;;;;;;;;;5033017;28;20468;-69
2021/07/06 01:10:24;;;;;;;28.83;27.43;;;;;;;;;;5032757;28;20445;-69
2021/07/06 01:12:53;;;;;;;29.73;27.73;;;;;;;;;;5049211;28;20451;-69
2021/07/06 01:15:21;;;;;;;28.83;27.27;;;;;;;;;;5052954;28;20460;-69
2021/07/06 01:17:58;;;;;;;28.33;26.83;;;;;;;;;;5052840;28;21009;-69
2021/07/06 01:20:25;;;;;;;29.00;27.50;;;;;;;;;;5052317;28;20978;-69
2021/07/06 01:22:54;;;;;;;28.90;27.37;;;;;;;;;;5052936;28;20539;-69
2021/07/06 01:25:21;;;;;;;29.17;27.67;;;;;;;;;;5053188;28;20451;-69
2021/07/06 01:27:48;;;;;;;29.00;27.50;;;;;;;;;;5050698;28;20472;-69
2021/07/06 01:30:16;;;;;;;27.93;26.43;;;;;;;;;;5032407;28;20962;-70
2021/07/06 01:32:44;;;;;;;27.50;26.10;;;;;;;;;;5032694;28;20467;-70
2021/07/06 01:35:12;;;;;;;27.50;26.00;;;;;;;;;;5032876;28;20444;-69
2021/07/06 01:37:43;;;;;;;27.00;25.60;;;;;;;;;;5032139;28;20471;-69
2021/07/06 01:40:12;;;;;;;27.27;25.70;;;;;;;;;;5032133;28;20471;-69
2021/07/06 01:42:39;;;;;;;26.17;24.80;;;;;;;;;;5033505;28;20445;-72
2021/07/06 01:45:08;;;;;;;26.50;25.20;;;;;;;;;;5052419;28;20444;-70
2021/07/06 01:47:37;;;;;;;26.57;25.27;;;;;;;;;;5033526;28;20476;-70
2021/07/06 01:50:04;;;;;;;26.63;25.23;;;;;;;;;;5032259;28;20531;-67
2021/07/06 01:52:31;;;;;;;27.37;25.77;;;;;;;;;;5032031;28;20448;-69
2021/07/06 01:54:59;;;;;;;26.13;24.83;;;;;;;;;;5032521;28;20452;-69
2021/07/06 01:57:27;;;;;;;25.83;24.53;;;;;;;;;;5032104;28;20473;-69
2021/07/06 01:59:54;;;;;;;26.73;25.30;;;;;;;;;;5047907;28;20475;-69
2021/07/06 02:02:21;;;;;;;27.30;25.50;;;;;;;;;;5051092;28;20538;-69
2021/07/06 02:04:50;;;;;;;27.90;25.90;;;;;;;;;;5052222;28;20451;-67
2021/07/06 02:07:17;;;;;;;26.40;25.10;;;;;;;;;;5051848;28;20997;-70
2021/07/06 02:09:44;;;;;;;26.50;24.90;;;;;;;;;;5050407;28;20674;-70
2021/07/06 02:12:11;;;;;;;26.43;25.07;;;;;;;;;;5051995;28;20450;-69
2021/07/06 02:14:40;;;;;;;26.33;24.83;;;;;;;;;;5051935;28;20450;-69
2021/07/06 02:17:07;;;;;;;25.90;24.50;;;;;;;;;;5052118;28;20555;-68
2021/07/06 02:19:34;;;;;;;25.03;23.63;;;;;;;;;;5051684;28;20487;-69
2021/07/06 02:22:01;;;;;;;26.67;25.07;;;;;;;;;;5051851;28;20452;-69
2021/07/06 02:24:28;;;;;;;25.50;24.10;;;;;;;;;;5050048;28;20444;-69
2021/07/06 02:26:57;;;;;;;26.77;25.27;;;;;;;;;;5051484;28;20468;-69
2021/07/06 02:29:24;;;;;;;25.50;24.10;;;;;;;;;;5051085;28;20543;-69
2021/07/06 02:31:53;;;;;;;25.53;24.13;;;;;;;;;;5051459;28;20444;-69
2021/07/06 02:34:20;;;;;;;25.70;24.23;;;;;;;;;;5051796;28;20460;-69
2021/07/06 02:36:47;;;;;;;25.33;23.93;;;;;;;;;;5051375;28;20927;-69
2021/07/06 02:39:14;;;;;;;26.00;24.20;;;;;;;;;;5051505;28;20479;-69
2021/07/06 02:41:41;;;;;;;25.93;24.40;;;;;;;;;;5051235;28;20448;-69
2021/07/06 02:44:08;;;;;;;26.70;24.93;;;;;;;;;;5051518;28;20447;-69
2021/07/06 02:46:35;;;;;;;26.33;24.83;;;;;;;;;;5035860;28;20453;-69
2021/07/06 02:49:04;;;;;;;26.77;25.00;;;;;;;;;;5031530;28;20460;-70
2021/07/06 02:51:31;;;;;;;27.10;25.60;;;;;;;;;;5031404;28;20940;-69
2021/07/06 02:53:58;;;;;;;27.03;25.43;;;;;;;;;;5031757;28;20448;-69
2021/07/06 02:56:25;;;;;;;27.87;25.97;;;;;;;;;;5031406;28;20452;-69
2021/07/06 02:58:52;;;;;;;27.60;26.10;;;;;;;;;;5030956;28;21058;-69
2021/07/06 03:01:20;;;;;;;28.50;26.90;;;;;;;;;;5033206;28;20459;-68
2021/07/06 03:03:47;;;;;;;28.20;26.60;;;;;;;;;;5031419;28;20445;-69
2021/07/06 03:06:15;;;;;;;27.60;25.90;;;;;;;;;;5031169;28;20944;-68
2021/07/06 03:08:42;;;;;;;27.63;26.13;;;;;;;;;;5031246;28;20471;-69
2021/07/06 03:11:09;;;;;;;28.07;26.40;;;;;;;;;;5049859;28;20531;-70
2021/07/06 03:13:36;;;;;;;27.60;26.20;;;;;;;;;;5050802;28;21014;-70
2021/07/06 03:16:04;;;;;;;28.07;26.50;;;;;;;;;;5050528;28;20447;-69
2021/07/06 03:18:31;;;;;;;28.57;26.97;;;;;;;;;;5031313;28;20477;-69
2021/07/06 03:20:58;;;;;;;28.23;26.63;;;;;;;;;;5033704;28;20494;-69
2021/07/06 03:23:28;;;;;;;27.80;26.30;;;;;;;;;;5034929;28;20454;-69
2021/07/06 03:25:55;;;;;;;27.17;25.47;;;;;;;;;;5035072;28;20448;-69
2021/07/06 03:28:22;;;;;;;27.03;25.53;;;;;;;;;;5078558;23;20587;-68
2021/07/06 03:30:49;;;;;;;26.30;24.80;;;;;;;;;;5071988;28;20469;-68
2021/07/06 03:33:16;;;;;;;25.70;24.20;;;;;;;;;;5072452;28;20506;-67
2021/07/06 03:35:44;;;;;;;26.90;25.17;;;;;;;;;;5074230;28;20455;-67
2021/07/06 03:38:11;;;;;;;24.90;23.60;;;;;;;;;;5073859;28;20466;-68
2021/07/06 03:40:40;;;;;;;27.00;25.50;;;;;;;;;;5073765;28;21012;-68
2021/07/06 03:43:08;;;;;;;25.93;24.57;;;;;;;;;;5074163;28;20956;-68
2021/07/06 03:45:35;;;;;;;26.53;24.83;;;;;;;;;;5074071;28;20454;-68
2021/07/06 03:48:02;;;;;;;25.90;24.40;;;;;;;;;;5073648;28;20470;-68
2021/07/06 03:50:30;;;;;;;26.60;25.10;;;;;;;;;;5073734;28;20455;-68
2021/07/06 03:52:57;;;;;;;28.50;26.70;;;;;;;;;;5073609;28;20451;-67
2021/07/06 03:55:25;;;;;;;27.17;25.67;;;;;;;;;;5073740;28;20450;-68
2021/07/06 03:57:53;;;;;;;28.47;26.77;;;;;;;;;;5073874;28;20467;-68
2021/07/06 04:00:22;;;;;;;28.40;26.80;;;;;;;;;;5073730;28;20485;-68
2021/07/06 04:02:49;;;;;;;29.47;27.57;;;;;;;;;;5073694;28;20508;-68
2021/07/06 04:05:16;;;;;;;29.70;27.90;;;;;;;;;;5073976;28;20812;-69
2021/07/06 04:07:43;;;;;;;29.47;27.67;;;;;;;;;;5073380;28;20594;-67
2021/07/06 04:10:12;;;;;;;31.20;28.40;;;;;;;;;;5073973;28;20443;-68
2021/07/06 04:12:39;;;;;;;31.40;29.20;;;;;;;;;;5073242;28;20443;-68
2021/07/06 04:15:09;;;;;;;31.07;29.00;;;;;;;;;;5073982;28;20545;-68
2021/07/06 04:17:36;;;;;;;30.70;28.87;;;;;;;;;;5073884;28;20467;-67
2021/07/06 04:20:04;;;;;;;31.47;29.60;;;;;;;;;;5073163;28;20993;-68
2021/07/06 04:22:31;;;;;;;32.57;30.50;;;;;;;;;;5073446;28;20478;-68
2021/07/06 04:24:59;;;;;;;32.10;30.20;;;;;;;;;;5073297;28;20938;-68
2021/07/06 04:27:26;;;;;;;32.70;30.80;;;;;;;;;;5073269;28;20938;-68
2021/07/06 04:29:53;;;;;;;33.00;31.07;;;;;;;;;;5073401;28;20451;-68
2021/07/06 04:32:21;;;;;;;32.20;30.50;;;;;;;;;;5072388;28;20457;-68
2021/07/06 04:34:49;;;;;;;31.30;29.50;;;;;;;;;;5072474;28;20969;-69
2021/07/06 04:37:17;;;;;;;30.50;28.60;;;;;;;;;;5073151;28;20451;-69
2021/07/06 04:39:44;;;;;;;32.80;30.63;;;;;;;;;;5073144;28;20853;-69
2021/07/06 04:42:12;;;;;;;33.60;31.60;;;;;;;;;;5073185;28;20447;-68
2021/07/06 04:44:40;;;;;;;32.37;30.43;;;;;;;;;;5073451;28;20443;-69
2021/07/06 04:47:07;;;;;;;33.33;31.43;;;;;;;;;;5072999;28;20442;-69
2021/07/06 04:49:36;;;;;;;34.77;32.77;;;;;;;;;;5072451;28;20469;-68
2021/07/06 04:52:03;;;;;;;33.90;32.00;;;;;;;;;;5053092;28;21024;-68
2021/07/06 04:54:30;;;;;;;33.00;31.10;;;;;;;;;;5053243;28;20451;-67
2021/07/06 04:56:57;;;;;;;33.10;30.70;;;;;;;;;;5053170;28;20466;-68
2021/07/06 04:59:24;;;;;;;33.10;31.10;;;;;;;;;;5052797;28;20854;-68
2021/07/06 05:01:52;;;;;;;33.03;31.13;;;;;;;;;;5052926;28;20491;-68
2021/07/06 05:04:19;;;;;;;33.37;31.47;;;;;;;;;;5061944;28;20451;-68
2021/07/06 05:06:47;;;;;;;32.97;30.93;;;;;;;;;;5073071;28;20449;-68
2021/07/06 05:09:14;;;;;;;33.23;31.37;;;;;;;;;;5072384;28;20458;-67
2021/07/06 05:11:42;;;;;;;33.53;31.63;;;;;;;;;;5072342;28;20445;-68
2021/07/06 05:14:09;;;;;;;33.40;31.20;;;;;;;;;;5072077;28;20457;-68
2021/07/06 05:16:36;;;;;;;33.47;31.40;;;;;;;;;;5072493;28;20457;-68
2021/07/06 05:19:03;;;;;;;33.13;31.23;;;;;;;;;;5072372;28;20842;-67
2021/07/06 05:21:30;;;;;;;32.03;30.10;;;;;;;;;;5072473;28;20489;-68
2021/07/06 05:23:59;;;;;;;32.47;30.33;;;;;;;;;;5072562;28;20449;-68
2021/07/06 05:26:26;;;;;;;31.33;29.53;;;;;;;;;;5071931;28;20964;-68
2021/07/06 05:28:53;;;;;;;33.10;30.90;;;;;;;;;;5072196;28;20765;-68
2021/07/06 05:31:20;;;;;;;33.20;30.77;;;;;;;;;;5072413;28;20477;-68
2021/07/06 05:33:47;;;;;;;33.20;31.30;;;;;;;;;;5072265;28;20451;-68
2021/07/06 05:36:14;;;;;;;32.90;30.90;;;;;;;;;;5071879;28;20447;-68
2021/07/06 05:38:42;;;;;;;50.50;47.90;;;;;;;;;;5071665;28;21043;-68
2021/07/06 05:41:10;;;;;;;34.73;32.73;;;;;;;;;;5071914;28;20506;-68
2021/07/06 05:43:37;;;;;;;35.30;33.30;;;;;;;;;;5071801;28;20453;-68
2021/07/06 05:46:04;;;;;;;35.70;33.60;;;;;;;;;;5072095;28;20443;-69
2021/07/06 05:48:32;;;;;;;35.77;33.60;;;;;;;;;;5071917;28;20473;-68
2021/07/06 05:50:59;;;;;;;37.77;35.60;;;;;;;;;;5071857;28;20447;-68
2021/07/06 05:53:26;;;;;;;36.07;33.40;;;;;;;;;;5071610;28;20812;-68
2021/07/06 05:55:53;;;;;;;41.10;39.00;;;;;;;;;;5072252;28;20443;-68
2021/07/06 05:58:21;;;;;;;41.00;38.70;;;;;;;;;;5071775;28;20836;-71
2021/07/06 06:00:48;;;;;;;42.27;39.87;;;;;;;;;;5071626;28;20481;-71
2021/07/06 06:03:16;;;;;;;36.57;34.47;;;;;;;;;;5071873;28;20465;-71
2021/07/06 06:05:43;;;;;;;41.87;39.57;;;;;;;;;;5058350;28;20447;-67
2021/07/06 06:08:11;;;;;;;39.63;37.43;;;;;;;;;;5070925;28;20479;-67
2021/07/06 06:10:39;;;;;;;33.80;32.00;;;;;;;;;;5071668;28;20972;-67
2021/07/06 06:13:06;;;;;;;48.60;45.90;;;;;;;;;;5071401;28;20461;-68
2021/07/06 06:15:34;;;;;;;79.20;75.30;;;;;;;;;;5071618;28;20457;-67
2021/07/06 06:18:01;;;;;;;82.80;78.40;;;;;;;;;;5070776;28;20815;-67
2021/07/06 06:20:28;;;;;;;100.30;95.57;;;;;;;;;;5071296;28;20478;-67
2021/07/06 06:22:56;;;;;;;124.10;118.60;;;;;;;;;;5070585;28;20465;-68
2021/07/06 06:25:23;;;;;;;113.70;108.30;;;;;;;;;;5071601;28;20447;-67
2021/07/06 06:27:50;;;;;;;120.40;115.00;;;;;;;;;;5051366;28;20483;-68
2021/07/06 06:30:17;;;;;;;90.13;85.93;;;;;;;;;;5051333;28;20435;-67
2021/07/06 06:32:46;;;;;;;79.63;75.60;;;;;;;;;;5070754;28;20454;-67
2021/07/06 06:35:13;;;;;;;75.57;71.77;;;;;;;;;;5071869;28;20461;-68
2021/07/06 06:37:41;;;;;;;82.37;78.13;;;;;;;;;;5070489;28;20569;-68
2021/07/06 06:40:09;;;;;;;84.77;80.70;;;;;;;;;;5071642;28;20537;-68
2021/07/06 06:42:36;;;;;;;79.20;75.20;;;;;;;;;;5070972;28;20447;-68
2021/07/06 06:45:04;;;;;;;79.53;75.53;;;;;;;;;;5071281;28;20453;-67
2021/07/06 06:47:31;;;;;;;80.27;76.30;;;;;;;;;;5071069;28;20446;-68
2021/07/06 06:49:59;;;;;;;103.03;98.43;;;;;;;;;;5071204;28;20451;-67
2021/07/06 06:52:26;;;;;;;114.43;108.90;;;;;;;;;;5070076;28;20538;-68
2021/07/06 06:54:53;;;;;;;119.60;114.23;;;;;;;;;;5072921;28;20453;-67
2021/07/06 06:57:22;;;;;;;135.50;129.60;;;;;;;;;;5071813;28;20462;-67
2021/07/06 06:59:49;;;;;;;123.00;117.60;;;;;;;;;;5075416;28;20443;-67
2021/07/06 07:02:20;;;;;;;119.30;113.73;;;;;;;;;;5074516;28;20467;-67
2021/07/06 07:04:48;;;;;;;128.53;122.63;;;;;;;;;;5075009;28;20457;-67
2021/07/06 07:07:17;;;;;;;110.90;105.97;;;;;;;;;;5074662;28;20453;-67
2021/07/06 07:09:44;;;;;;;94.87;90.17;;;;;;;;;;5074869;28;20447;-67
2021/07/06 07:12:11;;;;;;;75.47;71.77;;;;;;;;;;5074644;28;20457;-68
2021/07/06 07:14:38;;;;;;;65.30;62.00;;;;;;;;;;5074175;28;20454;-68
2021/07/06 07:17:06;;;;;;;60.60;57.50;;;;;;;;;;5072209;28;20455;-68
2021/07/06 07:19:33;;;;;;;62.60;59.40;;;;;;;;;;5066637;28;20834;-68
2021/07/06 07:22:00;;;;;;;57.50;54.50;;;;;;;;;;5074606;28;20838;-69
2021/07/06 07:24:29;;;;;;;63.63;59.87;;;;;;;;;;5074812;28;20836;-69
2021/07/06 07:26:57;;;;;;;77.57;73.47;;;;;;;;;;5074291;28;20455;-68
2021/07/06 07:29:24;;;;;;;83.17;79.17;;;;;;;;;;5068074;28;20493;-67
2021/07/06 07:31:51;;;;;;;82.17;78.27;;;;;;;;;;5074094;28;20805;-68
2021/07/06 07:34:18;;;;;;;104.13;99.43;;;;;;;;;;5067009;28;20460;-68
2021/07/06 07:36:46;;;;;;;112.77;107.27;;;;;;;;;;5074303;28;20477;-68
2021/07/06 07:39:14;;;;;;;107.43;102.37;;;;;;;;;;5074319;28;20463;-68
2021/07/06 07:41:42;;;;;;;120.70;115.33;;;;;;;;;;5073736;28;20478;-68
2021/07/06 07:44:09;;;;;;;113.70;108.70;;;;;;;;;;5073280;28;20447;-67
2021/07/06 07:46:36;;;;;;;90.73;86.43;;;;;;;;;;5063793;28;20452;-67
2021/07/06 07:49:03;;;;;;;77.90;74.10;;;;;;;;;;5059979;28;21349;-67
2021/07/06 07:51:31;;;;;;;70.23;66.33;;;;;;;;;;5074179;28;20451;-67
2021/07/06 07:53:58;;;;;;;56.40;53.60;;;;;;;;;;5071104;28;20451;-67
2021/07/06 07:56:25;;;;;;;51.77;48.87;;;;;;;;;;5073681;28;20458;-68
2021/07/06 07:58:54;;;;;;;48.23;45.73;;;;;;;;;;5074007;28;20463;-68
2021/07/06 08:01:21;;;;;;;41.73;39.40;;;;;;;;;;5090331;28;20489;-67
2021/07/06 08:03:48;;;;;;;55.43;52.53;;;;;;;;;;5094519;28;20450;-66
2021/07/06 08:06:15;;;;;;;57.30;54.10;;;;;;;;;;5075703;28;20451;-69
2021/07/06 08:08:42;;;;;;;60.00;56.63;;;;;;;;;;5073626;28;20557;-70
2021/07/06 08:11:09;;;;;;;51.87;48.87;;;;;;;;;;5073427;28;20447;-67
2021/07/06 08:13:36;;;;;;;53.67;50.73;;;;;;;;;;5073406;28;20451;-70
2021/07/06 08:16:05;;;;;;;52.90;49.50;;;;;;;;;;5071930;28;20452;-69
2021/07/06 08:18:32;;;;;;;50.83;48.00;;;;;;;;;;5066269;28;21017;-70
2021/07/06 08:21:00;;;;;;;48.60;45.80;;;;;;;;;;5071621;28;20483;-69
2021/07/06 08:23:27;;;;;;;44.47;42.00;;;;;;;;;;5061906;28;20479;-69
2021/07/06 08:25:54;;;;;;;47.40;44.80;;;;;;;;;;5072568;28;20453;-69
2021/07/06 08:28:22;;;;;;;43.60;41.10;;;;;;;;;;5071029;28;20536;-67
2021/07/06 08:30:49;;;;;;;47.10;44.50;;;;;;;;;;5063244;28;20494;-67
2021/07/06 08:33:18;;;;;;;45.07;42.37;;;;;;;;;;5067291;28;20452;-69
2021/07/06 08:35:45;;;;;;;44.77;42.13;;;;;;;;;;5065139;28;20447;-70
2021/07/06 08:38:13;;;;;;;39.90;37.70;;;;;;;;;;5073530;28;20475;-69
2021/07/06 08:40:40;;;;;;;40.43;38.23;;;;;;;;;;5070445;28;20443;-69
2021/07/06 08:43:08;;;;;;;43.20;40.80;;;;;;;;;;5073429;28;20455;-68
2021/07/06 08:45:35;;;;;;;43.27;40.80;;;;;;;;;;5062655;28;20820;-69
2021/07/06 08:48:02;;;;;;;40.40;38.10;;;;;;;;;;5053226;28;20474;-70
2021/07/06 08:50:31;;;;;;;40.60;38.10;;;;;;;;;;5053123;28;20452;-70
2021/07/06 08:52:58;;;;;;;41.57;39.07;;;;;;;;;;5053071;28;20935;-68
2021/07/06 08:55:25;;;;;;;39.83;37.63;;;;;;;;;;5052904;28;20462;-70
2021/07/06 08:57:53;;;;;;;39.37;37.07;;;;;;;;;;5053064;28;20479;-69
2021/07/06 09:00:21;;;;;;;42.47;39.97;;;;;;;;;;5053228;28;20459;-69
2021/07/06 09:03:02;;;;;;;44.50;41.57;;;;;;;;;;5060496;28;20486;-69
2021/07/06 09:05:31;;;;;;;42.67;40.27;;;;;;;;;;5072744;28;20423;-69
2021/07/06 09:07:58;;;;;;;44.00;41.50;;;;;;;;;;5072332;28;20471;-68
2021/07/06 09:10:26;;;;;;;43.20;40.33;;;;;;;;;;5071194;28;20460;-70
2021/07/06 09:12:53;;;;;;;39.70;37.50;;;;;;;;;;5072583;28;20443;-69
2021/07/06 09:15:26;;;;;;;41.90;39.50;;;;;;;;;;5072858;28;20450;-70
2021/07/06 09:18:05;;;;;;;43.10;40.70;;;;;;;;;;5068729;28;20479;-70
2021/07/06 09:20:33;;;;;;;42.07;39.67;;;;;;;;;;5072435;28;20446;-69
2021/07/06 09:23:15;;;;;;;44.97;42.47;;;;;;;;;;5072367;28;20493;-69
2021/07/06 09:25:42;;;;;;;46.27;43.77;;;;;;;;;;5068520;28;20447;-70
2021/07/06 09:28:21;;;;;;;48.43;45.77;;;;;;;;;;5089892;22;20454;-64
2021/07/06 09:30:48;;;;;;;48.30;45.67;;;;;;;;;;5070612;28;20461;-64
2021/07/06 09:33:26;;;;;;;47.83;44.93;;;;;;;;;;5075126;28;20459;-64
2021/07/06 09:35:54;;;;;;;48.67;45.77;;;;;;;;;;5073326;28;20445;-64
2021/07/06 09:38:22;;;;;;;49.57;46.87;;;;;;;;;;5078114;28;20468;-64
2021/07/06 09:40:50;;;;;;;46.80;44.20;;;;;;;;;;5075064;28;20458;-66
2021/07/06 09:43:22;;;;;;;43.37;40.83;;;;;;;;;;5073891;28;20482;-65
2021/07/06 09:46:04;;;;;;;48.43;45.67;;;;;;;;;;5079862;28;20546;-64
2021/07/06 09:48:31;;;;;;;40.63;38.23;;;;;;;;;;5079885;28;20472;-64
2021/07/06 09:51:13;;;;;;;39.10;36.80;;;;;;;;;;5091865;28;20458;-64
2021/07/06 09:53:40;;;;;;;36.17;34.17;;;;;;;;;;5093163;28;20528;-65
2021/07/06 09:56:12;;;;;;;36.53;34.03;;;;;;;;;;5079425;28;20493;-65
2021/07/06 09:59:06;;;;;;;38.13;35.87;;;;;;;;;;5072409;28;20474;-65
2021/07/06 10:01:34;;;;;;;34.83;32.80;;;;;;;;;;5025485;28;20566;-67
2021/07/06 10:04:01;;;;;;;35.40;33.23;;;;;;;;;;5053205;28;20454;-66
2021/07/06 10:06:30;;;;;;;35.50;33.43;;;;;;;;;;5077614;28;20453;-65
2021/07/06 10:08:58;;;;;;;37.87;35.80;;;;;;;;;;5072009;28;21015;-65
2021/07/06 10:11:26;;;;;;;36.60;34.60;;;;;;;;;;5068403;28;20830;-65
2021/07/06 10:13:56;;;;;;;35.67;33.67;;;;;;;;;;5067669;28;20462;-65
2021/07/06 10:16:23;;;;;;;33.37;31.40;;;;;;;;;;5073264;28;20454;-66
2021/07/06 10:18:50;;;;;;;34.83;32.83;;;;;;;;;;5072501;28;20475;-68
2021/07/06 10:21:17;;;;;;;31.03;29.03;;;;;;;;;;5072789;28;20447;-65
2021/07/06 10:23:49;;;;;;;30.60;28.70;;;;;;;;;;5072233;28;20459;-65
2021/07/06 10:26:21;;;;;;;32.10;30.27;;;;;;;;;;5076688;28;20450;-65
2021/07/06 10:28:52;;;;;;;33.33;31.43;;;;;;;;;;5060772;28;20495;-67
2021/07/06 10:31:19;;;;;;;32.23;30.23;;;;;;;;;;5072822;28;20458;-65
2021/07/06 10:33:47;;;;;;;31.87;29.97;;;;;;;;;;5067766;28;20960;-67
2021/07/06 10:36:16;;;;;;;32.77;30.97;;;;;;;;;;5074554;28;20459;-67
2021/07/06 10:38:49;;;;;;;32.40;30.50;;;;;;;;;;5062860;28;20532;-65
2021/07/06 10:41:20;;;;;;;32.60;30.70;;;;;;;;;;5059177;28;20458;-65
2021/07/06 10:43:51;;;;;;;30.80;29.10;;;;;;;;;;5076938;28;21278;-65
2021/07/06 10:46:29;;;;;;;31.07;29.37;;;;;;;;;;5076419;28;20948;-65
2021/07/06 10:48:58;;;;;;;30.27;28.67;;;;;;;;;;5059062;28;20531;-65
2021/07/06 10:51:44;;;;;;;30.67;28.77;;;;;;;;;;5060834;28;20466;-65
2021/07/06 10:54:15;;;;;;;29.90;28.30;;;;;;;;;;5071233;28;20463;-66
2021/07/06 10:56:43;;;;;;;29.90;28.20;;;;;;;;;;5055070;28;20828;-65
2021/07/06 10:59:19;;;;;;;30.77;28.97;;;;;;;;;;5066860;28;20479;-65
2021/07/06 11:02:07;;;;;;;28.40;26.70;;;;;;;;;;5052471;28;20992;-65
2021/07/06 11:04:55;;;;;;;30.20;28.50;;;;;;;;;;5072540;28;20817;-65
2021/07/06 11:07:42;;;;;;;28.53;26.93;;;;;;;;;;5067684;28;20463;-65
2021/07/06 11:10:11;;;;;;;28.70;27.20;;;;;;;;;;5056778;28;20491;-71
2021/07/06 11:12:39;;;;;;;28.80;27.07;;;;;;;;;;5060278;28;20467;-65
2021/07/06 11:15:16;;;;;;;26.77;25.27;;;;;;;;;;5089671;28;20472;-65
2021/07/06 11:17:44;;;;;;;28.90;27.23;;;;;;;;;;5058175;28;20443;-67
2021/07/06 11:20:12;;;;;;;28.70;27.00;;;;;;;;;;5061379;28;20571;-67
2021/07/06 11:22:40;;;;;;;29.73;27.93;;;;;;;;;;5079380;28;20481;-67
2021/07/06 11:25:22;;;;;;;29.40;27.60;;;;;;;;;;5052073;28;20467;-65
2021/07/06 11:27:56;;;;;;;31.77;29.97;;;;;;;;;;5064138;28;20466;-65
2021/07/06 11:30:27;;;;;;;30.17;28.47;;;;;;;;;;5068186;28;20988;-65
2021/07/06 11:33:08;;;;;;;30.10;28.50;;;;;;;;;;5072177;28;20447;-65
2021/07/06 11:35:36;;;;;;;31.77;29.90;;;;;;;;;;5069893;28;20542;-66
2021/07/06 11:38:04;;;;;;;29.30;27.60;;;;;;;;;;5064503;28;20463;-65
2021/07/06 11:40:33;;;;;;;33.07;31.13;;;;;;;;;;5062924;28;20446;-65
2021/07/06 11:43:01;;;;;;;35.20;33.20;;;;;;;;;;5075392;28;20483;-65
2021/07/06 11:45:28;;;;;;;33.70;31.90;;;;;;;;;;5084338;28;20445;-68
2021/07/06 11:48:09;;;;;;;34.17;32.17;;;;;;;;;;5089369;28;20455;-65
2021/07/06 11:50:37;;;;;;;34.33;32.33;;;;;;;;;;5084410;28;20446;-68
2021/07/06 11:53:04;;;;;;;34.00;32.20;;;;;;;;;;5095466;28;20509;-65
2021/07/06 11:55:33;;;;;;;35.63;33.63;;;;;;;;;;5094207;28;20457;-65
2021/07/06 11:58:02;;;;;;;35.57;33.40;;;;;;;;;;5096147;28;20773;-66
2021/07/06 12:00:30;;;;;;;36.70;34.70;;;;;;;;;;5093437;28;20538;-66
2021/07/06 12:03:16;;;;;;;36.47;34.37;;;;;;;;;;5088698;28;20481;-66
2021/07/06 12:05:43;;;;;;;40.30;38.20;;;;;;;;;;5067016;28;20941;-65
2021/07/06 12:08:17;;;;;;;38.60;36.50;;;;;;;;;;5073725;28;20489;-65
2021/07/06 12:11:02;;;;;;;40.33;37.47;;;;;;;;;;5074351;28;20968;-65
2021/07/06 12:13:30;;;;;;;39.20;37.10;;;;;;;;;;5074570;28;20505;-66
2021/07/06 12:16:01;;;;;;;41.60;39.03;;;;;;;;;;5065211;28;20459;-68
2021/07/06 12:18:28;;;;;;;39.17;37.07;;;;;;;;;;5074204;28;20558;-65
2021/07/06 12:20:57;;;;;;;41.33;39.10;;;;;;;;;;5073535;28;20451;-65
2021/07/06 12:23:25;;;;;;;40.30;38.10;;;;;;;;;;5074642;28;20475;-65
2021/07/06 12:25:54;;;;;;;39.53;37.37;;;;;;;;;;5064067;28;20454;-65
2021/07/06 12:28:23;;;;;;;43.10;40.60;;;;;;;;;;5054490;28;20484;-68
2021/07/06 12:31:08;;;;;;;43.20;40.80;;;;;;;;;;5054583;28;20535;-65
2021/07/06 12:33:36;;;;;;;44.20;41.70;;;;;;;;;;5073506;28;20810;-65
2021/07/06 12:36:03;;;;;;;40.97;38.77;;;;;;;;;;5074999;28;20545;-66
2021/07/06 12:38:30;;;;;;;42.00;39.70;;;;;;;;;;5074397;28;20471;-65
2021/07/06 12:40:57;;;;;;;41.77;39.47;;;;;;;;;;5085149;28;20458;-65
2021/07/06 12:43:26;;;;;;;42.83;40.40;;;;;;;;;;5094250;28;20485;-65
2021/07/06 12:45:53;;;;;;;41.07;38.77;;;;;;;;;;5084924;28;20513;-65
2021/07/06 12:48:29;;;;;;;47.33;44.73;;;;;;;;;;5077661;28;20477;-66
2021/07/06 12:51:08;;;;;;;50.37;47.50;;;;;;;;;;5081521;28;20508;-65
2021/07/06 12:53:35;;;;;;;50.07;47.27;;;;;;;;;;5073431;28;20442;-65
2021/07/06 12:56:02;;;;;;;48.40;45.40;;;;;;;;;;5069292;28;20471;-65
2021/07/06 12:58:31;;;;;;;44.67;42.23;;;;;;;;;;5069155;28;20487;-65
2021/07/06 13:00:58;;;;;;;41.70;39.27;;;;;;;;;;5074150;28;20453;-66
2021/07/06 13:03:25;;;;;;;39.47;37.20;;;;;;;;;;5073769;28;20478;-66
2021/07/06 13:06:04;;;;;;;38.70;36.60;;;;;;;;;;5073092;28;21005;-65
2021/07/06 13:08:33;;;;;;;39.20;37.00;;;;;;;;;;5073850;28;20466;-65
2021/07/06 13:11:04;;;;;;;38.40;36.40;;;;;;;;;;5073502;28;20451;-65
2021/07/06 13:13:33;;;;;;;38.70;36.60;;;;;;;;;;5073388;28;20458;-65
2021/07/06 13:16:02;;;;;;;37.83;35.70;;;;;;;;;;5074001;28;20451;-65
2021/07/06 13:18:35;;;;;;;36.43;34.43;;;;;;;;;;5073943;28;20466;-65
2021/07/06 13:21:04;;;;;;;38.10;36.00;;;;;;;;;;5082879;28;20446;-65
2021/07/06 13:23:33;;;;;;;38.10;36.00;;;;;;;;;;5094002;28;20478;-65
2021/07/06 13:26:01;;;;;;;38.87;36.57;;;;;;;;;;5062500;28;20554;-65
2021/07/06 13:28:28;;;;;;;35.70;33.80;;;;;;;;;;5070825;28;20490;-66
2021/07/06 13:30:57;;;;;;;36.20;34.20;;;;;;;;;;5070552;28;20438;-65
2021/07/06 13:33:25;;;;;;;36.40;34.40;;;;;;;;;;5067680;28;20465;-65
2021/07/06 13:35:53;;;;;;;36.43;34.53;;;;;;;;;;5063664;28;20462;-65
2021/07/06 13:38:20;;;;;;;34.73;32.83;;;;;;;;;;5053170;28;20467;-65
2021/07/06 13:40:48;;;;;;;34.13;32.07;;;;;;;;;;5059869;28;20459;-66
2021/07/06 13:43:16;;;;;;;34.17;32.30;;;;;;;;;;5073248;28;20963;-65
2021/07/06 13:45:43;;;;;;;35.77;33.87;;;;;;;;;;5072879;28;20455;-65
2021/07/06 13:48:12;;;;;;;35.27;33.37;;;;;;;;;;5070446;28;20463;-65
2021/07/06 13:50:39;;;;;;;33.40;31.60;;;;;;;;;;5057556;28;20835;-65
2021/07/06 13:53:06;;;;;;;33.80;32.00;;;;;;;;;;5080172;28;20459;-65
2021/07/06 13:55:36;;;;;;;33.20;31.10;;;;;;;;;;5066822;28;20460;-65
2021/07/06 13:58:04;;;;;;;32.73;31.03;;;;;;;;;;5090888;28;20438;-65
2021/07/06 14:00:31;;;;;;;34.27;32.27;;;;;;;;;;5064757;28;20459;-65
2021/07/06 14:02:59;;;;;;;33.43;31.63;;;;;;;;;;5072789;28;20516;-65
2021/07/06 14:05:28;;;;;;;32.67;30.97;;;;;;;;;;5073645;28;20458;-65
2021/07/06 14:07:56;;;;;;;35.50;33.50;;;;;;;;;;5063500;28;20469;-66
2021/07/06 14:10:25;;;;;;;38.53;36.53;;;;;;;;;;5068559;28;20463;-65
2021/07/06 14:12:52;;;;;;;38.83;36.53;;;;;;;;;;5074262;28;20458;-65
2021/07/06 14:15:19;;;;;;;37.83;35.73;;;;;;;;;;5068158;28;20977;-65
2021/07/06 14:17:47;;;;;;;38.40;36.30;;;;;;;;;;5090121;28;20866;-65
2021/07/06 14:20:14;;;;;;;38.73;36.53;;;;;;;;;;5064294;28;20479;-67
2021/07/06 14:22:43;;;;;;;40.93;38.63;;;;;;;;;;5085937;28;20515;-67
2021/07/06 14:25:12;;;;;;;41.00;38.70;;;;;;;;;;5076119;28;20469;-65